Du har inga inställningar för hoppväder.nu

Hoppväder.nu

Senast uppdaterat 02:05

UTC-tid

2022-05-24 kl. 00:05


Sol och måne

Solen går upp 4:38 och går ner 22:30 (beräknade cirkatider)
Nästa fullmåne blir om 21 dagar (2022-06-14)

METAR

ESMS (Malmö)
(1455 minuter sedan)
ESMS 232350Z 11011KT CAVOK 12/07 Q1004=



ESMK (Everöd)
(1455 minuter sedan)
ESMK 232350Z AUTO 10008KT 9999 NCD 10/08 Q1006=



ESTL (Ljungbyhed)
(1455 minuter sedan)
ESTL 232350Z AUTO 11010KT 9999 NCD 10/08 Q1005=



EKCH (Köpenhamn)
(1485 minuter sedan)
EKCH 232320Z AUTO 11015KT 9999 NCD 13/08 Q1003 NOSIG=



ESTA (Ängelholm)
(1455 minuter sedan)
ESTA 232350Z AUTO 10014KT 9999 NCD 10/06 Q1004=



TAF

ESMS (Malmö)
(1501 minuter sedan)
ESMS 232304Z 2400/2424 10012KT CAVOK TEMPO 2401/2409 13018G32KT BECMG 2407/2410 3000 RA BKN005 BKN050CB BECMG 2410/2413 22010KT 9999 NSW BKN020 TEMPO 2413/2416 BKN012 TEMPO 2416/2420 SCT020CB=



ESMK (Everöd)
ESMK



ESTL (Ljungbyhed)
ESTL



EKCH (Köpenhamn)
(1501 minuter sedan)
EKCH 232304Z 2400/2424 11015KT CAVOK TEMPO 2400/2404 10018G28KT BECMG 2404/2407 13020G34KT BECMG 2407/2410 14015KT 4000 RA BKN008 BKN060CB BECMG 2410/2413 21010KT 9999 NSW SCT020 TEMPO 2415/2420 SCT025CB=



ESTA (Ängelholm)
(235 minuter sedan)
ESTA 232010Z 2321/2323 11014KT CAVOK=





Kodnycklar till TAF och METAR






LHP

(Eslöv är område se11f i Hela Område 1)

Prognos är inte uppdaterad




Preliminär prognos

ÄNDRAD ÖVERSIKTLIG PROGNOS FÖR OMRÅDE se1 UTFÄRDAD 231548
GÄLLANDE DEN 24 MAJ 2022 MELLAN 04 OCH 16 UTC


Väderöversikt
Se väderöversikt för område se2 + se3


Delområde se11

Sikt/Väder/Moln
04-08UTC: Område se11a,se11e,se11d,se11b,se11i,se11h: Sikt >8km. Molnbas >4000ft, lokalt 2000ft - 4000ft.
Område se11c,se11g,se11f: Sikt 1.5km - >8km i dis, regnskurar, regn. Molnbas 500ft - >4000ft.

08-12UTC: Område se11c,se11g,se11f: Sikt >8km i regn, lokalt 1.5km - 3km i regnskurar, dis. Molnbas 1500ft - 2000ft, lokalt 500ft - 1000ft.
Område se11e,se11i,se11h: Sikt 1.5km - >8km i dis, regnskurar, regn. Molnbas 500ft - >4000ft.

08-16UTC: Område se11a,se11d,se11b: Sikt >8km i regn, lokalt 1.5km - 3km i regnskurar, dis. Molnbas 1500ft - 2000ft, lokalt 500ft - 1000ft.

12-16UTC: Område se11e,se11i,se11h: Sikt >8km i regn, lokalt 1.5km - 3km i regnskurar, dis. Molnbas 1500ft - 2000ft, lokalt 500ft - 1000ft.
Område se11c,se11g,se11f: Sikt 1.5km - >8km i dis, regnskurar, regn. Molnbas 500ft - >4000ft.


CB/TCU Moln
04-08UTC: Område se11a,se11e,se11d,se11b,se11i,se11h: Väntas inte förekomma under perioden

04-12UTC: Område se11c,se11g,se11f: isol embd cb

08-16UTC: Område se11a,se11e,se11d,se11b,se11i,se11h: isol embd cb

12-16UTC: Område se11c,se11g,se11f: isol cb, isol embd cb


Vind vid marken
04-08UTC: Område se11c: O-SO/12-29 knop, byar upp till 36 knop.
Område se11g: SO/17-28 knop, byar upp till 36 knop.
Område se11b: O-SO/12-27 knop, byar upp till 34 knop.
Område se11f: O-SO/7-23 knop, byar upp till 34 knop.
Område se11a: O-SO/8-29 knop, byar upp till 38 knop.
Område se11i: O-SO/11-27 knop, byar upp till 34 knop.
Område se11e: O-SO/6-18 knop, byar upp till 29 knop.
Område se11h: O-SO/9-23 knop, byar upp till 31 knop.
Område se11d: O-SO/7-21 knop, byar upp till 30 knop.

08-12UTC: Område se11e: SO/7-21 knop, byar upp till 35 knop.
Område se11a: SO/10-24 knop, byar upp till 33 knop.
Område se11b: SO-S/15-24 knop, byar upp till 31 knop.
Område se11g: SO-S/12-23 knop, byar upp till 32 knop.
Område se11d: SO/8-20 knop, byar upp till 31 knop.
Område se11h: SO/9-24 knop, byar upp till 36 knop.
Område se11f: SO/7-19 knop, byar upp till 32 knop.
Område se11i: SO/9-24 knop, byar upp till 33 knop.
Område se11c: SO/12-23 knop, byar upp till 33 knop.

12-16UTC: Område se11a: SO-S/6-26 knop, byar upp till 36 knop.
Område se11e: SO-S/4-12 knop, byar upp till 23 knop.
Område se11b: SO-S/8-20 knop, byar upp till 28 knop.
Område se11c: S/4-12 knop, byar upp till 20 knop.
Område se11h: SO-S/5-18 knop, byar upp till 25 knop.
Område se11d: SO-S/5-17 knop, byar upp till 25 knop.
Område se11f: S/3-12 knop, byar upp till 19 knop.
Område se11g: S-SV/5-13 knop, byar upp till 21 knop.
Område se11i: S/7-17 knop, byar upp till 25 knop.









Spotting

Hur fungerar spotthjälpen och Vindkartan?

Markvind är ca 0 m/s.



Vindkartan

Senast uppdaterad 02:05




All data kommer från LFV.se